Time;durP1;ratioP1;P1;durP2;ratioP2;P2;SDS_P1;SDS_P2;PMS_P1;PMS_P2;Temp;Humidity;BMP_temperature;BMP_pressure;BME280_temperature;BME280_humidity;BME280_pressure;Samples;Min_cycle;Max_cycle;Signal;HPM_P1;HPM_P2
2022/08/25 09:08:42;;;;;;;;;;;;;;;;;;;;;
2022/08/25 09:28:48;;;;;;;7.47;3.00;;;;;;;27.53;39.79;101425.22;6120876;23;20322;-61
2022/08/25 10:13:47;;;;;;;;;;;;;;;;;;;;;
2022/08/25 10:47:56;;;;;;;5.15;2.38;;;;;;;28.70;35.07;101338.81;6149398;23;20102;-62
2022/08/25 12:50:15;;;;;;;4.60;2.53;;;;;;;30.09;29.83;101247.91;5970394;24;20026;-64
2022/08/25 18:05:11;;;;;;;8.73;3.22;;;;;;;28.66;44.05;101123.66;6028838;23;20104;-57
2022/08/25 18:07:37;;;;;;;5.20;3.03;;;;;;;28.58;44.98;101126.34;6181017;23;20451;-57
2022/08/25 18:10:04;;;;;;;7.20;3.67;;;;;;;28.54;45.24;101125.44;6208871;23;20005;-58
2022/08/25 18:12:29;;;;;;;10.30;3.53;;;;;;;28.54;44.89;101136.84;6208297;23;20011;-57
2022/08/25 18:14:54;;;;;;;7.80;3.67;;;;;;;28.53;43.96;101151.47;6208909;23;20009;-58
2022/08/25 18:17:20;;;;;;;8.93;3.47;;;;;;;28.50;43.10;101147.34;6210086;23;20012;-57
2022/08/25 18:19:47;;;;;;;6.85;3.97;;;;;;;28.48;43.50;101155.44;6207940;23;20329;-57
2022/08/25 18:22:13;;;;;;;9.10;3.50;;;;;;;28.46;43.74;101152.16;6208940;23;20104;-57
2022/08/25 18:24:38;;;;;;;8.88;4.35;;;;;;;28.45;43.94;101156.16;6208154;23;20058;-57
2022/08/25 18:27:03;;;;;;;9.75;4.90;;;;;;;28.44;44.81;101153.69;6207334;23;20016;-57
2022/08/25 18:29:30;;;;;;;5.90;4.10;;;;;;;28.43;44.64;101164.28;6208544;23;20453;-57
2022/08/25 18:31:55;;;;;;;9.25;5.07;;;;;;;28.35;45.49;101157.53;6206826;23;20178;-58
2022/08/25 18:34:22;;;;;;;10.63;5.30;;;;;;;28.37;45.63;101166.59;6207788;23;20465;-57
2022/08/25 18:36:49;;;;;;;14.35;5.20;;;;;;;28.36;45.62;101164.06;6209008;23;20008;-57
2022/08/25 18:42:00;;;;;;;11.75;5.65;;;;;;;28.25;46.86;101163.75;6207255;23;20074;-58
2022/08/25 18:44:26;;;;;;;13.38;6.03;;;;;;;28.28;46.97;101170.78;6209337;23;20107;-58
2022/08/25 18:46:51;;;;;;;8.65;6.00;;;;;;;28.26;47.35;101168.31;6219162;23;20070;-57
2022/08/25 18:49:17;;;;;;;9.43;6.90;;;;;;;28.21;48.19;101171.41;6237435;23;20004;-58
2022/08/25 18:51:43;;;;;;;9.60;6.97;;;;;;;28.16;48.44;101173.72;6239468;23;20417;-58
2022/08/25 18:54:09;;;;;;;10.90;8.18;;;;;;;28.17;49.02;101178.22;6238187;23;20019;-58
2022/08/25 18:56:35;;;;;;;11.40;7.47;;;;;;;28.10;49.07;101188.25;6240736;23;20008;-58
2022/08/25 18:59:00;;;;;;;10.35;8.57;;;;;;;28.10;49.35;101187.44;6239631;23;20004;-57
2022/08/25 19:01:26;;;;;;;16.02;9.43;;;;;;;28.02;49.30;101197.81;6238780;23;20032;-58
2022/08/25 19:03:51;;;;;;;11.90;10.00;;;;;;;27.97;49.95;101192.34;6239606;23;20483;-58
2022/08/25 19:06:18;;;;;;;11.90;10.23;;;;;;;27.90;49.97;101214.94;6236694;23;20061;-57
2022/08/25 19:08:44;;;;;;;13.55;11.55;;;;;;;27.84;50.28;101202.16;6237648;23;20425;-57
2022/08/25 19:11:09;;;;;;;14.45;12.75;;;;;;;27.84;50.56;101211.53;6239664;23;20043;-56
2022/08/25 19:13:34;;;;;;;16.05;13.75;;;;;;;27.84;50.48;101202.16;6238703;23;20039;-56
2022/08/25 19:16:16;;;;;;;19.02;15.07;;;;;;;27.79;50.74;101213.81;6237526;23;20027;-56
2022/08/25 19:18:42;;;;;;;16.73;15.02;;;;;;;27.73;50.96;101215.22;6238628;23;20058;-57
2022/08/25 19:21:08;;;;;;;17.33;15.55;;;;;;;27.73;50.94;101215.22;6237817;23;20004;-57
2022/08/25 19:23:36;;;;;;;17.75;15.05;;;;;;;27.72;50.78;101213.56;6236807;23;20012;-57
2022/08/25 19:26:04;;;;;;;20.35;17.55;;;;;;;27.64;51.26;101219.06;6235378;23;20428;-58
2022/08/25 19:28:30;;;;;;;20.85;16.73;;;;;;;27.57;51.44;101218.00;6237537;23;19996;-58
2022/08/25 19:30:55;;;;;;;21.30;16.73;;;;;;;27.61;51.26;101231.19;6238336;23;20012;-58
2022/08/25 19:33:21;;;;;;;18.77;16.83;;;;;;;27.59;51.31;101233.56;6240345;23;20004;-57
2022/08/25 19:35:49;;;;;;;21.52;18.20;;;;;;;27.53;51.48;101232.16;6237073;23;20026;-57
2022/08/25 19:38:19;;;;;;;24.58;18.50;;;;;;;27.48;51.63;101248.69;6238205;23;20019;-58
2022/08/25 19:40:46;;;;;;;21.40;18.33;;;;;;;27.45;51.61;101249.41;6239839;23;20026;-57
2022/08/25 19:43:12;;;;;;;22.05;19.10;;;;;;;27.46;51.96;101257.56;6237267;23;20008;-57
2022/08/25 19:45:37;;;;;;;23.70;21.17;;;;;;;27.38;52.24;101262.22;6235068;23;20588;-58
2022/08/25 19:48:04;;;;;;;28.40;25.02;;;;;;;27.39;52.49;101277.28;6235872;23;20016;-58
2022/08/25 19:50:29;;;;;;;27.63;24.85;;;;;;;27.32;52.85;101275.06;6237663;23;20004;-58
2022/08/25 19:52:55;;;;;;;29.10;25.50;;;;;;;27.28;52.92;101265.56;6238277;23;20031;-58
2022/08/25 19:55:21;;;;;;;30.05;27.08;;;;;;;27.27;53.12;101265.91;6239544;23;20015;-58
2022/08/25 19:57:46;;;;;;;32.60;29.10;;;;;;;27.23;53.05;101264.97;6239158;23;20693;-59
2022/08/25 20:00:19;;;;;;;30.75;27.50;;;;;;;27.20;53.08;101271.41;6238841;23;20114;-58
2022/08/25 20:02:46;;;;;;;32.47;29.23;;;;;;;27.17;53.41;101282.31;6238901;23;20008;-58
2022/08/25 20:05:12;;;;;;;34.63;31.02;;;;;;;27.10;53.77;101269.81;6238348;23;20879;-58
2022/08/25 20:07:39;;;;;;;34.65;31.30;;;;;;;27.09;53.70;101271.00;6237622;23;20004;-58
2022/08/25 20:10:07;;;;;;;35.25;31.70;;;;;;;27.05;53.70;101284.28;6239180;23;20008;-57
2022/08/25 20:12:34;;;;;;;38.55;34.58;;;;;;;26.96;54.21;101289.25;6236424;23;20004;-57
2022/08/25 20:15:00;;;;;;;37.97;34.22;;;;;;;26.91;54.45;101284.63;6235247;23;20454;-58
2022/08/25 20:17:26;;;;;;;41.60;37.30;;;;;;;26.83;54.88;101283.53;6236786;23;20016;-58
2022/08/25 20:19:54;;;;;;;39.88;35.80;;;;;;;26.84;54.65;101298.59;6239206;23;20004;-58
2022/08/25 20:22:20;;;;;;;44.33;39.25;;;;;;;26.77;55.01;101299.22;6239319;23;20004;-57
2022/08/25 20:24:49;;;;;;;42.22;37.83;;;;;;;26.75;54.95;101293.00;6236007;23;20012;-58
2022/08/25 20:27:26;;;;;;;40.38;36.63;;;;;;;26.80;54.43;101306.19;6239011;23;20079;-57
2022/08/25 20:29:52;;;;;;;41.10;36.72;;;;;;;26.73;55.08;101305.97;6237416;23;20004;-57
2022/08/25 20:32:18;;;;;;;43.00;38.70;;;;;;;26.69;55.11;101303.00;6237387;23;20000;-57
2022/08/25 20:34:45;;;;;;;45.65;41.03;;;;;;;26.61;55.67;101301.06;6238891;23;20015;-58
2022/08/25 20:37:11;;;;;;;45.30;40.80;;;;;;;26.66;55.83;101307.34;6235947;23;20111;-58
2022/08/25 20:39:38;;;;;;;43.17;38.63;;;;;;;26.61;55.64;101318.16;6237822;23;20047;-58
2022/08/25 20:45:33;;;;;;;45.75;39.90;;;;;;;26.46;56.38;101311.09;6213087;23;20019;-57
2022/08/25 20:47:58;;;;;;;43.92;39.63;;;;;;;26.47;56.26;101317.63;6236127;23;20020;-58
2022/08/25 20:50:25;;;;;;;43.35;38.92;;;;;;;26.42;56.26;101316.63;6239245;23;20027;-58
2022/08/25 20:52:52;;;;;;;39.22;35.30;;;;;;;26.39;56.35;101316.47;6235561;23;20022;-58
2022/08/25 20:55:18;;;;;;;39.85;33.72;;;;;;;26.41;56.36;101319.81;6237716;23;20015;-56
2022/08/25 20:57:43;;;;;;;40.00;36.05;;;;;;;26.31;56.56;101318.22;6238506;23;20114;-57
2022/08/25 21:00:09;;;;;;;36.83;32.92;;;;;;;26.30;56.66;101332.81;6238108;23;20015;-57
2022/08/25 22:11:58;;;;;;;18.20;13.30;;;;;;;25.48;57.74;101366.47;5705101;25;20032;-58
2022/08/25 22:14:25;;;;;;;21.52;14.43;;;;;;;25.36;57.53;101370.88;5802355;24;20018;-58
2022/08/25 22:16:50;;;;;;;19.10;13.77;;;;;;;25.35;57.74;101377.75;6085306;23;20013;-56
2022/08/25 22:19:16;;;;;;;17.70;13.70;;;;;;;25.32;57.84;101374.75;6180962;23;20012;-56
2022/08/25 22:21:43;;;;;;;20.23;14.15;;;;;;;25.20;58.28;101372.63;6181790;23;20325;-56
2022/08/25 22:24:09;;;;;;;19.45;13.80;;;;;;;25.27;58.30;101383.44;6183023;23;20421;-56
2022/08/25 22:26:35;;;;;;;19.27;12.80;;;;;;;25.25;57.91;101386.63;6184986;23;20055;-56
2022/08/25 22:29:01;;;;;;;24.10;13.43;;;;;;;25.20;58.24;101392.50;6183734;23;20438;-57
2022/08/25 22:31:27;;;;;;;19.35;12.65;;;;;;;25.15;58.54;101387.84;6183628;23;20001;-57
2022/08/25 22:33:53;;;;;;;20.17;13.30;;;;;;;25.04;58.92;101386.50;6184403;23;20005;-57
2022/08/25 22:36:25;;;;;;;22.27;13.02;;;;;;;25.07;58.81;101377.28;6185167;23;20005;-57
2022/08/25 22:38:52;;;;;;;18.13;10.60;;;;;;;25.16;58.69;101391.50;6184009;23;20015;-57
2022/08/25 22:41:18;;;;;;;20.52;11.27;;;;;;;25.07;58.71;101380.13;6184018;23;20093;-57
2022/08/25 22:43:49;;;;;;;17.75;11.10;;;;;;;25.04;58.57;101391.34;6182921;23;20039;-57
2022/08/25 22:46:15;;;;;;;21.20;10.95;;;;;;;24.93;59.15;101388.88;6183797;23;20381;-57
2022/08/25 22:48:40;;;;;;;15.88;10.70;;;;;;;25.01;59.00;101392.03;6201962;23;20016;-57
2022/08/25 22:51:08;;;;;;;18.58;10.48;;;;;;;24.93;59.10;101388.03;6214786;23;20009;-58
2022/08/25 22:53:35;;;;;;;17.35;9.70;;;;;;;24.96;59.10;101396.72;6214526;23;20013;-57
2022/08/25 22:56:00;;;;;;;22.67;10.63;;;;;;;24.91;58.79;101390.34;6214456;23;20031;-57
2022/08/25 22:58:26;;;;;;;16.50;9.13;;;;;;;25.00;58.71;101394.03;6214684;23;20425;-57
2022/08/25 23:00:52;;;;;;;18.90;9.35;;;;;;;25.02;58.52;101391.66;6213052;23;20007;-57
2022/08/25 23:03:18;;;;;;;15.32;9.35;;;;;;;24.98;58.96;101387.84;6214349;23;20082;-57
2022/08/25 23:05:44;;;;;;;13.23;8.57;;;;;;;24.91;59.04;101390.34;6214923;23;20001;-57
2022/08/25 23:08:09;;;;;;;13.10;7.80;;;;;;;24.94;59.00;101392.53;6214351;23;20372;-57
2022/08/25 23:10:34;;;;;;;16.75;8.63;;;;;;;24.86;58.76;101390.53;6213683;23;20043;-58
2022/08/25 23:12:59;;;;;;;15.13;7.82;;;;;;;24.76;59.34;101386.06;6213773;23;20058;-58
2022/08/25 23:15:25;;;;;;;14.75;6.90;;;;;;;24.78;59.40;101388.56;6212654;23;20067;-58
2022/08/25 23:17:50;;;;;;;16.42;6.32;;;;;;;24.79;59.34;101393.06;6213454;23;20009;-57
2022/08/25 23:23:00;;;;;;;11.40;4.90;;;;;;;24.65;59.49;101379.06;6214824;23;20019;-58
2022/08/25 23:25:25;;;;;;;11.00;4.60;;;;;;;24.77;59.04;101384.06;6214780;23;20016;-57
2022/08/25 23:27:51;;;;;;;10.70;4.45;;;;;;;24.77;58.91;101387.72;6212895;23;20445;-57
2022/08/25 23:30:16;;;;;;;12.25;4.35;;;;;;;24.73;58.88;101387.56;6213320;23;20044;-56
2022/08/25 23:32:42;;;;;;;11.57;4.07;;;;;;;24.56;59.49;101392.41;6214934;23;20120;-56
2022/08/25 23:35:07;;;;;;;13.80;4.10;;;;;;;24.57;59.42;101394.94;6213973;23;20039;-57
2022/08/25 23:37:32;;;;;;;8.32;3.40;;;;;;;24.62;59.05;101393.94;6214040;23;20032;-57
2022/08/25 23:39:58;;;;;;;8.25;3.90;;;;;;;24.67;59.31;101393.75;6214756;23;20425;-57
2022/08/25 23:42:23;;;;;;;11.13;3.60;;;;;;;24.59;59.52;101391.75;6212123;23;20008;-57
2022/08/25 23:44:49;;;;;;;8.93;3.63;;;;;;;24.56;59.56;101392.41;6213399;23;20026;-57
2022/08/25 23:47:15;;;;;;;10.57;4.03;;;;;;;24.56;59.12;101396.09;6213811;23;20004;-57
2022/08/25 23:49:40;;;;;;;9.73;3.70;;;;;;;24.54;59.57;101383.41;6212908;23;20082;-57
2022/08/25 23:52:05;;;;;;;10.63;3.38;;;;;;;24.56;59.31;101395.25;6214785;23;20366;-57
2022/08/25 23:54:31;;;;;;;10.73;3.70;;;;;;;24.46;59.38;101393.59;6212843;23;20874;-57
2022/08/25 23:56:56;;;;;;;15.55;4.57;;;;;;;24.46;59.52;101390.75;6213423;23;20008;-57
2022/08/25 23:59:22;;;;;;;10.68;3.58;;;;;;;24.38;59.66;101386.75;6214054;23;20009;-57
